Airfield :
LOGIN :

Register | Disclaimer

   EN    FR    IT 

 










Legend :    VFR   Marginal VFR   IFR   Intensive IFR   Very Intensive IFR
Visi :
Ceiling :
>= 8 km
>= 3000ft
5 to 8 km
1000 to 3000 ft
1500m to 5 km
500 to 1000 ft
800 to 1500m
200 to 500 ft
< 800m
< 200 ft
Symbols :   Thunderstorms  Fog  Heavy snow  Heavy precipitations  Wind > 20 kt
SIGMETs :     Misc.  Thunderstorms  Icing  Turbulence  Mountain Waves  Volcanic Ashes







- Airport Elevation : 296 ft
- IATA code : GKE


ETNG - Geilenkirchen

CURRENT METAR :
  • 190550Z 15002KT CAVOK 23/16 Q1007 NOSIG

EXPIRED METARs :
  • 190450Z 13004KT CAVOK 20/14 Q1007
  • 190350Z 14004KT CAVOK 16/13 Q1008

TAF TAF ETNG
Valid from the 19 at 03:00 until the 19 at 18:00 UTC


190200Z 1903/1918 14003KT CAVOK
BECMG 1908/1910 22010G20KT
TEMPO 1910/1918 22018G35KT 4000 SHRA TSRA SCT060CB
PROB30
TEMPO 1912/1918 22025G45KT 2000 +TSRAGR BKN050CB
No reported NOTAMs for that airfield.



MET'MAP, your aeronautical weather chart ! - Copyright ORBIFLY December 2007 - Disclaimer

ORBIFLY MET'MAP TEAM :

Programming & Development : Alexandra Zaïnal
Concept & Development : Baudouin d'Aumeries
Co-Development & Prog : Marc-Olivier Méhu
Technical & hardware support : Manuel Goepfert

Contact : metmap@orbifly.com




SOURCES & CREDITS :

   NOAA